Time,TemperatureF,DewpointF,PressureIn,WindDirection,WindDirectionDegrees,WindSpeedMPH,WindSpeedGustMPH,Humidity,HourlyPrecipIn,Conditions,Clouds,dailyrainin,SoftwareType,DateUTC
2014-01-11 00:00:00,67.9,67.3,30.06,SSW,195,0.0,0.0,98,0.00,,,0.00,Wunderground v.1.13,2014-01-11 05:00:00,
2014-01-11 00:10:00,67.8,67.2,30.06,SSW,195,0.0,0.0,98,0.00,,,0.00,Wunderground v.1.13,2014-01-11 05:10:00,
2014-01-11 00:20:00,67.8,67.2,30.05,SSW,195,0.0,0.0,98,0.00,,,0.00,Wunderground v.1.13,2014-01-11 05:20:00,
2014-01-11 00:30:00,67.6,67.0,30.05,SSW,195,0.0,0.0,98,0.00,,,0.00,Wunderground v.1.13,2014-01-11 05:30:00,
2014-01-11 00:40:00,67.6,67.0,30.05,SSW,195,0.0,0.0,98,0.00,,,0.00,Wunderground v.1.13,2014-01-11 05:40:00,
2014-01-11 00:50:00,67.4,67.1,30.05,SSW,195,0.0,0.0,99,0.00,,,0.00,Wunderground v.1.13,2014-01-11 05:50:00,
2014-01-11 01:00:00,67.4,67.1,30.04,N/A,-737280,0.0,0.0,99,0.00,,,0.00,Wunderground v.1.13,2014-01-11 06:00:00,
2014-01-11 01:10:00,67.8,67.5,30.04,SSW,195,0.0,0.0,99,0.00,,,0.00,Wunderground v.1.13,2014-01-11 06:10:00,
2014-01-11 01:20:00,68.1,67.8,30.04,SSW,195,0.0,0.0,99,0.00,,,0.00,Wunderground v.1.13,2014-01-11 06:20:00,
2014-01-11 01:30:00,68.3,68.0,30.04,SSW,195,0.0,0.0,99,0.00,,,0.00,Wunderground v.1.13,2014-01-11 06:30:00,
2014-01-11 01:40:00,68.4,68.1,30.04,SE,126,0.0,0.0,99,0.00,,,0.00,Wunderground v.1.13,2014-01-11 06:40:00,
2014-01-11 01:50:00,68.4,68.1,30.04,SE,127,0.0,0.0,99,0.00,,,0.00,Wunderground v.1.13,2014-01-11 06:50:00,
2014-01-11 02:00:00,68.3,68.0,30.03,SE,128,0.0,0.0,99,0.00,,,0.00,Wunderground v.1.13,2014-01-11 07:00:00,
2014-01-11 02:10:00,68.1,67.8,30.03,SE,128,0.0,0.0,99,0.00,,,0.00,Wunderground v.1.13,2014-01-11 07:10:00,
2014-01-11 02:20:00,68.1,67.8,30.03,SE,128,0.0,0.0,99,0.00,,,0.00,Wunderground v.1.13,2014-01-11 07:20:00,
2014-01-11 02:30:00,68.3,68.0,30.02,SE,128,0.0,0.0,99,0.00,,,0.00,Wunderground v.1.13,2014-01-11 07:30:00,
2014-01-11 02:40:00,68.3,68.0,30.02,SE,128,0.0,0.0,99,0.00,,,0.00,Wunderground v.1.13,2014-01-11 07:40:00,
2014-01-11 02:50:00,68.3,68.0,30.02,SE,128,0.0,0.0,99,0.00,,,0.00,Wunderground v.1.13,2014-01-11 07:50:00,
2014-01-11 03:00:00,68.3,68.0,30.01,SE,128,0.0,0.0,99,0.00,,,0.00,Wunderground v.1.13,2014-01-11 08:00:00,
2014-01-11 03:10:00,68.6,68.3,30.01,SE,128,0.0,0.0,99,0.00,,,0.00,Wunderground v.1.13,2014-01-11 08:10:00,
2014-01-11 03:20:00,68.6,68.3,30.01,SE,128,0.0,0.0,99,0.00,,,0.00,Wunderground v.1.13,2014-01-11 08:20:00,
2014-01-11 03:30:00,68.8,68.5,30.01,SE,128,0.0,0.0,99,0.00,,,0.00,Wunderground v.1.13,2014-01-11 08:30:00,
2014-01-11 03:40:00,68.8,68.5,30.01,SE,136,0.0,0.0,99,0.00,,,0.00,Wunderground v.1.13,2014-01-11 08:40:00,
2014-01-11 03:50:00,68.8,68.5,30.01,SE,136,0.0,0.0,99,0.00,,,0.00,Wunderground v.1.13,2014-01-11 08:50:00,
2014-01-11 04:00:00,68.9,68.6,30.01,SE,136,0.0,0.0,99,0.00,,,0.00,Wunderground v.1.13,2014-01-11 09:00:00,
2014-01-11 04:10:00,69.1,68.8,30.01,SE,136,0.0,0.0,99,0.00,,,0.00,Wunderground v.1.13,2014-01-11 09:10:00,
2014-01-11 04:20:00,69.3,69.3,30.02,SE,136,0.0,0.0,100,0.00,,,0.00,Wunderground v.1.13,2014-01-11 09:20:00,
2014-01-11 04:30:00,69.4,69.4,30.01,SE,136,0.0,0.0,100,0.00,,,0.00,Wunderground v.1.13,2014-01-11 09:30:00,
2014-01-11 04:40:00,69.6,69.6,30.01,SE,136,0.0,0.0,100,0.00,,,0.00,Wunderground v.1.13,2014-01-11 09:40:00,
2014-01-11 04:50:00,69.8,69.8,30.01,SE,136,0.0,0.0,100,0.00,,,0.00,Wunderground v.1.13,2014-01-11 09:50:00,
2014-01-11 05:00:00,69.9,69.9,30.02,SE,136,0.0,0.0,100,0.00,,,0.00,Wunderground v.1.13,2014-01-11 10:00:00,
2014-01-11 05:10:00,70.1,70.1,30.02,SE,136,0.0,0.0,100,0.00,,,0.00,Wunderground v.1.13,2014-01-11 10:10:00,
2014-01-11 05:20:00,70.3,70.3,30.01,SE,136,0.0,0.0,100,0.00,,,0.00,Wunderground v.1.13,2014-01-11 10:20:00,
2014-01-11 05:30:00,70.3,70.3,30.01,SE,136,0.0,0.0,100,0.00,,,0.00,Wunderground v.1.13,2014-01-11 10:30:00,
2014-01-11 05:40:00,70.4,70.4,30.01,SE,136,0.0,0.0,100,0.00,,,0.00,Wunderground v.1.13,2014-01-11 10:40:00,
2014-01-11 05:50:00,70.8,70.8,30.01,SE,144,0.0,0.0,100,0.00,,,0.00,Wunderground v.1.13,2014-01-11 10:50:00,
2014-01-11 06:00:00,71.1,71.1,30.00,SSE,165,0.0,0.0,100,0.00,,,0.00,Wunderground v.1.13,2014-01-11 11:00:00,
2014-01-11 06:10:00,71.3,71.3,30.00,South,169,0.0,0.0,100,0.00,,,0.00,Wunderground v.1.13,2014-01-11 11:10:00,
2014-01-11 06:20:00,71.3,71.3,30.00,South,176,1.0,1.0,100,0.00,,,0.00,Wunderground v.1.13,2014-01-11 11:20:00,
2014-01-11 06:30:00,71.6,71.6,30.00,South,175,1.0,1.0,100,0.00,,,0.00,Wunderground v.1.13,2014-01-11 11:30:00,
2014-01-11 06:40:00,71.6,71.6,30.00,South,181,2.0,2.0,100,0.00,,,0.00,Wunderground v.1.13,2014-01-11 11:40:00,
2014-01-11 06:50:00,71.8,71.8,30.01,SE,136,1.0,1.0,100,0.00,,,0.00,Wunderground v.1.13,2014-01-11 11:50:00,
2014-01-11 07:00:00,71.8,71.8,30.01,South,174,0.0,0.0,100,0.00,,,0.00,Wunderground v.1.13,2014-01-11 12:00:00,
2014-01-11 07:10:00,71.8,71.8,30.01,SSE,157,0.0,0.0,100,0.00,,,0.00,Wunderground v.1.13,2014-01-11 12:10:00,
2014-01-11 07:20:00,71.8,71.8,30.01,South,182,1.0,1.0,100,0.00,,,0.00,Wunderground v.1.13,2014-01-11 12:20:00,
2014-01-11 07:30:00,71.8,71.8,30.01,SW,236,1.0,1.0,100,0.00,,,0.00,Wunderground v.1.13,2014-01-11 12:30:00,
2014-01-11 07:40:00,71.6,71.6,30.01,SW,229,1.0,1.0,100,0.00,,,0.00,Wunderground v.1.13,2014-01-11 12:40:00,
2014-01-11 07:50:00,71.8,71.8,30.02,SSW,196,3.0,3.0,100,0.00,,,0.00,Wunderground v.1.13,2014-01-11 12:50:00,
2014-01-11 08:00:00,71.8,71.8,30.02,SW,219,2.0,2.0,100,0.00,,,0.00,Wunderground v.1.13,2014-01-11 13:00:00,
2014-01-11 08:10:00,72.0,72.0,30.02,ESE,113,2.0,2.0,100,0.00,,,0.00,Wunderground v.1.13,2014-01-11 13:10:00,
2014-01-11 08:20:00,72.0,72.0,30.03,SSW,206,0.0,0.0,100,0.00,,,0.00,Wunderground v.1.13,2014-01-11 13:20:00,
2014-01-11 08:30:00,72.0,72.0,30.04,SW,222,2.0,2.0,100,0.00,,,0.00,Wunderground v.1.13,2014-01-11 13:30:00,
2014-01-11 08:40:00,71.6,71.3,30.04,WSW,246,2.0,4.0,99,0.00,,,0.00,Wunderground v.1.13,2014-01-11 13:40:00,
2014-01-11 08:50:00,71.5,71.2,30.04,SW,216,1.0,1.0,99,0.00,,,0.00,Wunderground v.1.13,2014-01-11 13:50:00,
2014-01-11 09:00:00,71.3,71.0,30.05,South,189,1.0,1.0,99,0.00,,,0.00,Wunderground v.1.13,2014-01-11 14:00:00,
2014-01-11 09:10:00,70.9,70.6,30.05,West,267,1.0,1.0,99,0.00,,,0.00,Wunderground v.1.13,2014-01-11 14:10:00,
2014-01-11 09:20:00,70.6,70.3,30.05,SSW,210,2.0,2.0,99,0.00,,,0.00,Wunderground v.1.13,2014-01-11 14:20:00,
2014-01-11 09:30:00,70.6,70.3,30.05,South,178,2.0,2.0,99,0.00,,,0.00,Wunderground v.1.13,2014-01-11 14:30:00,
2014-01-11 09:40:00,70.8,70.5,30.05,SSW,196,1.0,1.0,99,0.00,,,0.00,Wunderground v.1.13,2014-01-11 14:40:00,
2014-01-11 09:50:00,70.9,70.6,30.06,SSE,168,1.0,8.0,99,0.00,,,0.00,Wunderground v.1.13,2014-01-11 14:50:00,
2014-01-11 10:00:00,71.3,71.0,30.05,SW,222,2.0,2.0,99,0.00,,,0.00,Wunderground v.1.13,2014-01-11 15:00:00,
2014-01-11 10:10:00,71.8,71.5,30.05,SW,233,1.0,1.0,99,0.00,,,0.00,Wunderground v.1.13,2014-01-11 15:10:00,
2014-01-11 10:20:00,72.3,71.7,30.05,SSW,193,1.0,1.0,98,0.00,,,0.00,Wunderground v.1.13,2014-01-11 15:20:00,
2014-01-11 10:30:00,72.8,72.2,30.05,South,182,1.0,1.0,98,0.00,,,0.00,Wunderground v.1.13,2014-01-11 15:30:00,
2014-01-11 10:40:00,73.3,72.4,30.05,SW,217,2.0,2.0,97,0.00,,,0.00,Wunderground v.1.13,2014-01-11 15:40:00,
2014-01-11 10:50:00,73.9,72.7,30.05,South,186,2.0,6.0,96,0.00,,,0.00,Wunderground v.1.13,2014-01-11 15:50:00,
2014-01-11 11:00:00,74.4,72.6,30.04,SW,219,4.0,4.0,94,0.00,,,0.00,Wunderground v.1.13,2014-01-11 16:00:00,
2014-01-11 11:10:00,75.1,73.3,30.04,WSW,237,3.0,3.0,94,0.00,,,0.00,Wunderground v.1.13,2014-01-11 16:10:00,
2014-01-11 11:20:00,76.0,74.1,30.04,WSW,247,0.0,0.0,94,0.00,,,0.00,Wunderground v.1.13,2014-01-11 16:20:00,
2014-01-11 11:30:00,77.0,73.5,30.03,WSW,243,2.0,2.0,89,0.00,,,0.00,Wunderground v.1.13,2014-01-11 16:30:00,
2014-01-11 11:40:00,77.4,73.2,30.03,SSW,213,3.0,4.0,87,0.00,,,0.00,Wunderground v.1.13,2014-01-11 16:40:00,
2014-01-11 11:50:00,77.4,73.6,30.02,WSW,250,3.0,3.0,88,0.00,,,0.00,Wunderground v.1.13,2014-01-11 16:50:00,
2014-01-11 12:00:00,77.2,73.4,30.01,WNW,299,4.0,9.0,88,0.00,,,0.00,Wunderground v.1.13,2014-01-11 17:00:00,
2014-01-11 12:10:00,78.5,74.0,30.01,SSW,203,2.0,7.0,86,0.00,,,0.00,Wunderground v.1.13,2014-01-11 17:10:00,
2014-01-11 12:20:00,77.6,73.4,30.00,WNW,284,4.0,7.0,87,0.00,,,0.00,Wunderground v.1.13,2014-01-11 17:20:00,
2014-01-11 12:30:00,77.9,73.7,29.99,WNW,288,5.0,6.0,87,0.00,,,0.00,Wunderground v.1.13,2014-01-11 17:30:00,
2014-01-11 12:40:00,78.6,73.7,29.99,WNW,291,5.0,5.0,85,0.00,,,0.00,Wunderground v.1.13,2014-01-11 17:40:00,
2014-01-11 12:50:00,78.6,73.7,29.98,WSW,256,5.0,6.0,85,0.00,,,0.00,Wunderground v.1.13,2014-01-11 17:50:00,
2014-01-11 13:00:00,78.5,73.6,29.97,WNW,299,6.0,6.0,85,0.00,,,0.00,Wunderground v.1.13,2014-01-11 18:00:00,
2014-01-11 13:10:00,77.7,73.2,29.97,WSW,243,9.0,16.0,86,0.00,,,0.00,Wunderground v.1.13,2014-01-11 18:10:00,
2014-01-11 13:20:00,78.1,73.2,29.96,WSW,251,7.0,7.0,85,0.00,,,0.00,Wunderground v.1.13,2014-01-11 18:20:00,
2014-01-11 13:30:00,78.3,73.1,29.96,WNW,294,7.0,7.0,84,0.00,,,0.00,Wunderground v.1.13,2014-01-11 18:30:00,
2014-01-11 13:40:00,78.3,73.1,29.96,SSW,202,6.0,9.0,84,0.00,,,0.00,Wunderground v.1.13,2014-01-11 18:40:00,
2014-01-11 13:50:00,78.5,72.9,29.94,West,281,4.0,7.0,83,0.00,,,0.00,Wunderground v.1.13,2014-01-11 18:50:00,
2014-01-11 14:00:00,78.5,72.9,29.94,NW,312,8.0,8.0,83,0.00,,,0.00,Wunderground v.1.13,2014-01-11 19:00:00,
2014-01-11 14:10:00,77.7,72.1,29.94,NW,312,6.0,6.0,83,0.00,,,0.00,Wunderground v.1.13,2014-01-11 19:10:00,
2014-01-11 14:20:00,76.5,70.9,29.94,NW,315,8.0,8.0,83,0.00,,,0.00,Wunderground v.1.13,2014-01-11 19:20:00,
2014-01-11 14:30:00,75.1,72.0,29.94,NW,318,8.0,8.0,90,0.00,,,0.00,Wunderground v.1.13,2014-01-11 19:30:00,
2014-01-11 14:40:00,74.6,71.8,29.94,NNW,344,6.0,6.0,91,0.00,,,0.00,Wunderground v.1.13,2014-01-11 19:40:00,
2014-01-11 14:50:00,75.1,72.3,29.94,WSW,241,6.0,9.0,91,0.00,,,0.00,Wunderground v.1.13,2014-01-11 19:50:00,
2014-01-11 15:00:00,75.8,72.7,29.93,NW,304,7.0,7.0,90,0.00,,,0.00,Wunderground v.1.13,2014-01-11 20:00:00,
2014-01-11 15:10:00,75.8,71.3,29.93,SW,216,5.0,8.0,86,0.00,,,0.00,Wunderground v.1.13,2014-01-11 20:10:00,
2014-01-11 15:20:00,76.7,72.5,29.93,NW,319,6.0,6.0,87,0.00,,,0.00,Wunderground v.1.13,2014-01-11 20:20:00,
2014-01-11 15:30:00,76.5,72.3,29.93,West,271,6.0,6.0,87,0.00,,,0.00,Wunderground v.1.13,2014-01-11 20:30:00,
2014-01-11 15:40:00,76.3,72.1,29.93,WNW,285,6.0,10.0,87,0.00,,,0.00,Wunderground v.1.13,2014-01-11 20:40:00,
2014-01-11 15:50:00,76.1,71.9,29.93,WNW,301,7.0,7.0,87,0.00,,,0.00,Wunderground v.1.13,2014-01-11 20:50:00,
2014-01-11 16:00:00,75.8,71.7,29.93,NW,322,5.0,9.0,87,0.00,,,0.00,Wunderground v.1.13,2014-01-11 21:00:00,
2014-01-11 16:10:00,76.0,71.8,29.93,West,270,5.0,8.0,87,0.00,,,0.00,Wunderground v.1.13,2014-01-11 21:10:00,
2014-01-11 16:20:00,76.1,72.6,29.93,WNW,301,2.0,2.0,89,0.00,,,0.00,Wunderground v.1.13,2014-01-11 21:20:00,
2014-01-11 16:30:00,75.6,72.5,29.93,West,272,3.0,11.0,90,0.00,,,0.00,Wunderground v.1.13,2014-01-11 21:30:00,
2014-01-11 16:40:00,74.9,71.8,29.93,WNW,289,4.0,4.0,90,0.00,,,0.00,Wunderground v.1.13,2014-01-11 21:40:00,
2014-01-11 17:00:00,74.4,71.3,29.93,WNW,298,0.0,0.0,90,0.00,,,0.00,Wunderground v.1.13,2014-01-11 22:00:00,
2014-01-11 17:10:00,74.4,71.3,29.93,West,263,2.0,2.0,90,0.00,,,0.00,Wunderground v.1.13,2014-01-11 22:10:00,
2014-01-11 17:20:00,73.5,70.4,29.93,NW,309,3.0,10.0,90,0.00,,,0.00,Wunderground v.1.13,2014-01-11 22:20:00,
2014-01-11 17:30:00,73.3,70.2,29.93,NW,309,4.0,4.0,90,0.00,,,0.00,Wunderground v.1.13,2014-01-11 22:30:00,
2014-01-11 17:40:00,73.3,70.2,29.93,West,280,4.0,4.0,90,0.00,,,0.00,Wunderground v.1.13,2014-01-11 22:40:00,
2014-01-11 17:50:00,73.5,70.4,29.94,West,261,1.0,1.0,90,0.00,,,0.00,Wunderground v.1.13,2014-01-11 22:50:00,
2014-01-11 18:00:00,73.5,70.4,29.93,WNW,296,1.0,1.0,90,0.00,,,0.00,Wunderground v.1.13,2014-01-11 23:00:00,
2014-01-11 18:10:00,73.2,70.1,29.93,NNW,344,3.0,6.0,90,0.00,,,0.00,Wunderground v.1.13,2014-01-11 23:10:00,
2014-01-11 18:20:00,72.8,69.7,29.94,West,275,5.0,5.0,90,0.00,,,0.00,Wunderground v.1.13,2014-01-11 23:20:00,
2014-01-11 18:30:00,72.1,71.5,29.94,West,260,4.0,9.0,98,0.00,,,0.00,Wunderground v.1.13,2014-01-11 23:30:00,
2014-01-11 18:40:00,70.6,70.0,29.94,NW,313,6.0,7.0,98,0.00,,,0.00,Wunderground v.1.13,2014-01-11 23:40:00,
2014-01-11 18:50:00,70.6,70.0,29.94,NW,326,2.0,2.0,98,0.00,,,0.00,Wunderground v.1.13,2014-01-11 23:50:00,
2014-01-11 19:00:00,68.9,68.3,29.95,WNW,298,5.0,5.0,98,0.00,,,0.00,Wunderground v.1.13,2014-01-12 00:00:00,
2014-01-11 19:10:00,68.1,67.5,29.95,North,356,3.0,4.0,98,0.00,,,0.00,Wunderground v.1.13,2014-01-12 00:10:00,
2014-01-11 19:20:00,67.1,66.8,29.98,NW,322,7.0,7.0,99,0.00,,,0.00,Wunderground v.1.13,2014-01-12 00:20:00,
2014-01-11 19:30:00,67.1,66.8,29.98,NW,320,3.0,4.0,99,0.00,,,0.00,Wunderground v.1.13,2014-01-12 00:30:00,
2014-01-11 19:40:00,66.6,66.3,29.98,North,356,2.0,2.0,99,0.00,,,0.00,Wunderground v.1.13,2014-01-12 00:40:00,
2014-01-11 19:50:00,66.6,66.3,29.99,North,353,0.0,0.0,99,0.00,,,0.00,Wunderground v.1.13,2014-01-12 00:50:00,
2014-01-11 20:00:00,66.6,66.3,29.98,NNW,340,0.0,0.0,99,0.00,,,0.00,Wunderground v.1.13,2014-01-12 01:00:00,
2014-01-11 20:10:00,66.1,66.1,29.98,NNW,332,0.0,0.0,100,0.00,,,0.00,Wunderground v.1.13,2014-01-12 01:10:00,
2014-01-11 20:20:00,66.1,66.1,29.98,NNW,347,0.0,0.0,100,0.00,,,0.00,Wunderground v.1.13,2014-01-12 01:20:00,
2014-01-11 20:30:00,65.8,65.8,29.99,NW,325,0.0,0.0,100,0.00,,,0.00,Wunderground v.1.13,2014-01-12 01:30:00,
2014-01-11 20:40:00,66.0,66.0,29.99,WNW,288,0.0,0.0,100,0.00,,,0.00,Wunderground v.1.13,2014-01-12 01:40:00,
2014-01-11 20:50:00,66.4,66.4,29.97,NNW,330,0.0,0.0,100,0.00,,,0.00,Wunderground v.1.13,2014-01-12 01:50:00,
2014-01-11 21:00:00,66.4,66.4,29.98,NW,304,0.0,0.0,100,0.00,,,0.00,Wunderground v.1.13,2014-01-12 02:00:00,
2014-01-11 21:10:00,66.4,66.4,29.98,NW,313,0.0,0.0,100,0.00,,,0.00,Wunderground v.1.13,2014-01-12 02:10:00,
2014-01-11 21:20:00,66.1,66.1,29.99,North,349,0.0,0.0,100,0.00,,,0.00,Wunderground v.1.13,2014-01-12 02:20:00,
2014-01-11 21:30:00,66.1,66.1,29.99,NNW,336,0.0,0.0,100,0.00,,,0.00,Wunderground v.1.13,2014-01-12 02:30:00,
2014-01-11 21:40:00,65.6,65.6,29.99,NW,326,0.0,0.0,100,0.00,,,0.00,Wunderground v.1.13,2014-01-12 02:40:00,
2014-01-11 21:50:00,65.6,65.3,29.99,NW,304,0.0,0.0,99,0.00,,,0.00,Wunderground v.1.13,2014-01-12 02:50:00,
2014-01-11 22:00:00,64.3,64.0,30.00,West,281,0.0,0.0,99,0.00,,,0.00,Wunderground v.1.13,2014-01-12 03:00:00,
2014-01-11 22:10:00,63.9,63.3,30.00,West,281,0.0,0.0,98,0.00,,,0.00,Wunderground v.1.13,2014-01-12 03:10:00,
2014-01-11 22:20:00,63.9,63.3,30.00,West,281,0.0,0.0,98,0.00,,,0.00,Wunderground v.1.13,2014-01-12 03:20:00,
2014-01-11 22:30:00,63.4,62.5,30.00,West,281,0.0,0.0,97,0.00,,,0.00,Wunderground v.1.13,2014-01-12 03:30:00,
2014-01-11 22:40:00,63.2,62.3,30.00,West,281,0.0,0.0,97,0.00,,,0.00,Wunderground v.1.13,2014-01-12 03:40:00,
2014-01-11 22:50:00,63.1,61.9,30.00,West,281,0.0,0.0,96,0.00,,,0.00,Wunderground v.1.13,2014-01-12 03:50:00,
2014-01-11 23:00:00,62.7,61.5,30.00,West,281,0.0,0.0,96,0.00,,,0.00,Wunderground v.1.13,2014-01-12 04:00:00,
2014-01-11 23:10:00,62.7,61.8,30.00,West,281,0.0,0.0,97,0.00,,,0.00,Wunderground v.1.13,2014-01-12 04:10:00,
2014-01-11 23:20:00,62.6,61.7,30.00,West,281,0.0,0.0,97,0.00,,,0.00,Wunderground v.1.13,2014-01-12 04:20:00,
2014-01-11 23:30:00,62.7,61.8,30.00,West,281,0.0,0.0,97,0.00,,,0.00,Wunderground v.1.13,2014-01-12 04:30:00,
2014-01-11 23:40:00,62.7,61.8,30.00,West,281,0.0,0.0,97,0.00,,,0.00,Wunderground v.1.13,2014-01-12 04:40:00,
2014-01-11 23:50:00,63.4,62.5,30.00,West,281,0.0,0.0,97,0.00,,,0.00,Wunderground v.1.13,2014-01-12 04:50:00,